Dades meteomassalio
Diari Summary for Octubre 25, 2017 Units:  English    Metric   Both
« Previous Day
Next Day »
Diari Semanal Mensual Anual Personalitzat
  Maxima: Minima: Mijana:
Temperatura: TemperatureC °F 3.3 °F 12.8 °F
Rosada: DewpointC °F -1.6 °F 3.4 °F
Humitat: Humidity % 31 % 55 %
Velocitat del vent: WindSpeedKMH mph 0.0 mph 3.5 mph
Racha vent: WindSpeedGustKMH mph - -
Vent:- - West
Pressio: PressurehPa in 1024.9 in -
Pluja: 0.0 in    
Historical Graphs
 
 
Tabular Data for Octubre 25, 2017
Time Temperature Dew Point Pressure Wind Wind Speed Wind Gust Humidity Rainfall Rate (Hourly) solar Conditions
TemperatureC °F DewpointC °F PressurehPa in Calm     Humidity % HourlyPrecipMM in SolarRadiationWatts/m^2 W/m2 Conditions
00:01 8.3 °F 0.6 °F 1026.6 in Calm     58 % 0.0 in 0.0 W/m2 CLR
00:06 7.8 °F 0.0 °F 1026.6 in Calm     58 % 0.0 in 0.0 W/m2 CLR
00:11 7.8 °F 0.3 °F 1026.6 in Calm     59 % 0.0 in 0.0 W/m2 CLR
00:16 7.8 °F 0.3 °F 1026.6 in Calm     59 % 0.0 in 0.0 W/m2 CLR
00:21 7.8 °F 0.3 °F 1026.6 in Calm     59 % 0.0 in 0.0 W/m2 CLR
00:26 8.3 °F 1.0 °F 1026.6 in Calm     60 % 0.0 in 0.0 W/m2 CLR
00:31 8.3 °F 1.0 °F 1026.6 in Calm     60 % 0.0 in 0.0 W/m2 CLR
00:36 8.3 °F 0.8 °F 1026.6 in Calm     59 % 0.0 in 0.0 W/m2 CLR
00:41 7.8 °F 0.3 °F 1026.6 in Calm     59 % 0.0 in 0.0 W/m2 CLR
00:46 7.8 °F 0.5 °F 1026.6 in Calm     60 % 0.0 in 0.0 W/m2 CLR
00:51 7.2 °F -0.1 °F 1026.6 in Calm     60 % 0.0 in 0.0 W/m2 CLR
00:56 7.2 °F 0.2 °F 1026.6 in Calm     61 % 0.0 in 0.0 W/m2 CLR
01:01 6.7 °F -0.3 °F 1026.6 in Calm     61 % 0.0 in 0.0 W/m2 CLR
01:06 6.7 °F -0.3 °F 1026.6 in Calm     61 % 0.0 in 0.0 W/m2 CLR
01:11 6.7 °F -0.1 °F 1026.6 in Calm     62 % 0.0 in 0.0 W/m2 CLR
01:16 6.7 °F -0.1 °F 1026.6 in Calm     62 % 0.0 in 0.0 W/m2 CLR
01:21 6.7 °F -0.1 °F 1026.6 in Calm     62 % 0.0 in 0.0 W/m2 CLR
01:26 6.7 °F -0.3 °F 1026.6 in Calm     61 % 0.0 in 0.0 W/m2 CLR
01:31 6.7 °F -0.3 °F 1026.6 in Calm     61 % 0.0 in 0.0 W/m2 CLR
01:36 6.1 °F -0.8 °F 1026.3 in Calm     61 % 0.0 in 0.0 W/m2 CLR
01:41 6.1 °F -1.1 °F 1026.3 in Calm     60 % 0.0 in 0.0 W/m2 CLR
01:46 6.1 °F -1.1 °F 1026.6 in Calm     60 % 0.0 in 0.0 W/m2 CLR
01:51 6.1 °F -1.1 °F 1026.3 in Calm     60 % 0.0 in 0.0 W/m2 CLR
01:56 6.1 °F -0.8 °F 1026.6 in Calm     61 % 0.0 in 0.0 W/m2 CLR
02:01 6.1 °F -0.6 °F 1026.6 in Calm     62 % 0.0 in 0.0 W/m2 CLR
02:06 6.1 °F -0.4 °F 1026.6 in Calm     63 % 0.0 in 0.0 W/m2 CLR
02:11 6.1 °F -0.4 °F 1026.6 in Calm     63 % 0.0 in 0.0 W/m2 CLR
02:16 6.7 °F 0.1 °F 1026.6 in Calm     63 % 0.0 in 0.0 W/m2 CLR
02:21 6.7 °F 0.1 °F 1026.6 in Calm     63 % 0.0 in 0.0 W/m2 CLR
02:26 6.7 °F 0.1 °F 1026.6 in Calm     63 % 0.0 in 0.0 W/m2 CLR
02:31 7.2 °F 0.7 °F 1026.6 in Calm     63 % 0.0 in 0.0 W/m2 CLR
02:36 7.2 °F 0.8 °F 1026.6 in Calm     64 % 0.0 in 0.0 W/m2 CLR
02:41 7.2 °F 0.8 °F 1026.6 in Calm     64 % 0.0 in 0.0 W/m2 CLR
02:46 6.7 °F 0.3 °F 1026.6 in Calm     64 % 0.0 in 0.0 W/m2 CLR
02:51 6.7 °F 0.1 °F 1026.6 in Calm     63 % 0.0 in 0.0 W/m2 CLR
02:56 6.1 °F -0.4 °F 1026.6 in Calm     63 % 0.0 in 0.0 W/m2 CLR
03:01 6.1 °F -0.4 °F 1026.6 in Calm     63 % 0.0 in 0.0 W/m2 CLR
03:06 5.6 °F -0.7 °F 1026.6 in Calm     64 % 0.0 in 0.0 W/m2 CLR
03:11 5.6 °F -0.7 °F 1026.6 in Calm     64 % 0.0 in 0.0 W/m2 CLR
03:16 5.0 °F -1.1 °F 1026.6 in Calm     65 % 0.0 in 0.0 W/m2 CLR
03:21 5.0 °F -1.1 °F 1026.6 in Calm     65 % 0.0 in 0.0 W/m2 CLR
03:26 5.0 °F -0.8 °F 1026.6 in Calm     66 % 0.0 in 0.0 W/m2 CLR
03:31 5.0 °F -0.8 °F 1026.6 in Calm     66 % 0.0 in 0.0 W/m2 CLR
03:36 5.0 °F -1.1 °F 1026.6 in Calm     65 % 0.0 in 0.0 W/m2 CLR
03:41 5.0 °F -1.1 °F 1026.6 in Calm     65 % 0.0 in 0.0 W/m2 CLR
03:46 5.0 °F -1.3 °F 1027.0 in Calm     64 % 0.0 in 0.0 W/m2 CLR
03:51 5.0 °F -1.3 °F 1027.0 in Calm     64 % 0.0 in 0.0 W/m2 CLR
03:56 5.6 °F -0.7 °F 1027.0 in Calm     64 % 0.0 in 0.0 W/m2 CLR
04:01 5.6 °F -0.5 °F 1027.0 in Calm     65 % 0.0 in 0.0 W/m2 CLR
04:06 5.6 °F -0.3 °F 1027.0 in Calm     66 % 0.0 in 0.0 W/m2 CLR
04:11 5.6 °F -0.1 °F 1027.0 in Calm     67 % 0.0 in 0.0 W/m2 CLR
04:16 5.6 °F -0.1 °F 1027.0 in Calm     67 % 0.0 in 0.0 W/m2 CLR
04:21 5.0 °F -0.4 °F 1026.6 in Calm     68 % 0.0 in 0.0 W/m2 CLR
04:26 5.6 °F 0.1 °F 1026.6 in Calm     68 % 0.0 in 0.0 W/m2 CLR
04:31 5.0 °F -0.4 °F 1026.6 in Calm     68 % 0.0 in 0.0 W/m2 CLR
04:36 5.0 °F -0.4 °F 1026.6 in Calm     68 % 0.0 in 0.0 W/m2 CLR
04:41 5.0 °F -0.4 °F 1026.6 in Calm     68 % 0.0 in 0.0 W/m2 CLR
04:46 5.0 °F -0.4 °F 1026.6 in Calm     68 % 0.0 in 0.0 W/m2 CLR
04:51 5.0 °F -0.6 °F 1026.6 in Calm     67 % 0.0 in 0.0 W/m2 CLR
04:56 4.4 °F -1.2 °F 1026.6 in Calm     67 % 0.0 in 0.0 W/m2 CLR
05:01 4.4 °F -0.9 °F 1026.6 in Calm     68 % 0.0 in 0.0 W/m2 CLR
05:06 4.4 °F -0.8 °F 1026.6 in Calm     69 % 0.0 in 0.0 W/m2 CLR
05:11 4.4 °F -0.8 °F 1026.6 in Calm     69 % 0.0 in 0.0 W/m2 CLR
05:16 4.4 °F -0.8 °F 1026.6 in Calm     69 % 0.0 in 0.0 W/m2 CLR
05:21 4.4 °F -0.9 °F 1026.6 in Calm     68 % 0.0 in 0.0 W/m2 CLR
05:26 4.4 °F -0.9 °F 1026.3 in Calm     68 % 0.0 in 0.0 W/m2 CLR
05:32 3.9 °F -1.3 °F 1026.3 in Calm     69 % 0.0 in 0.0 W/m2 CLR
05:37 3.9 °F -1.3 °F 1026.3 in Calm     69 % 0.0 in 0.0 W/m2 CLR
05:42 3.9 °F -1.1 °F 1026.3 in Calm     70 % 0.0 in 0.0 W/m2 CLR
05:47 3.9 °F -1.1 °F 1026.3 in Calm     70 % 0.0 in 0.0 W/m2 CLR
05:52 3.9 °F -1.1 °F 1026.3 in Calm     70 % 0.0 in 0.0 W/m2 CLR
05:57 3.9 °F -1.1 °F 1026.3 in Calm     70 % 0.0 in 0.0 W/m2 CLR
06:02 3.3 °F -1.6 °F 1026.3 in Calm     70 % 0.0 in 0.0 W/m2 CLR
06:07 3.3 °F -1.6 °F 1026.3 in Calm     70 % 0.0 in 0.0 W/m2 CLR
06:12 3.3 °F -1.4 °F 1026.3 in Calm     71 % 0.0 in 0.0 W/m2 CLR
06:17 3.3 °F -1.4 °F 1026.3 in Calm     71 % 0.0 in 0.0 W/m2 CLR
06:22 3.3 °F -1.4 °F 1026.3 in Calm     71 % 0.0 in 0.0 W/m2 CLR
06:27 3.3 °F -1.2 °F 1026.3 in Calm     72 % 0.0 in 0.0 W/m2 CLR
06:32 3.3 °F -1.2 °F 1026.3 in Calm     72 % 0.0 in 0.0 W/m2 CLR
06:37 3.3 °F -1.2 °F 1026.3 in Calm     72 % 0.0 in 0.0 W/m2 CLR
06:42 3.9 °F -0.9 °F 1026.6 in Calm     71 % 0.0 in 0.0 W/m2 CLR
06:47 4.4 °F -0.3 °F 1026.3 in Calm     71 % 0.0 in 0.0 W/m2 CLR
06:52 4.4 °F -0.3 °F 1026.6 in Calm     71 % 0.0 in 0.0 W/m2 CLR
06:57 4.4 °F -0.3 °F 1026.6 in Calm     71 % 0.0 in 0.0 W/m2 CLR
07:02 4.4 °F -0.3 °F 1026.6 in Calm     71 % 0.0 in 0.0 W/m2 CLR
07:07 5.0 °F 0.2 °F 1026.6 in Calm     71 % 0.0 in 0.0 W/m2 CLR
07:12 5.6 °F 0.7 °F 1026.6 in Calm     71 % 0.0 in 0.0 W/m2 CLR
07:17 5.6 °F 0.7 °F 1026.6 in Calm     71 % 0.0 in 0.0 W/m2 CLR
07:22 5.6 °F 0.7 °F 1026.6 in Calm     71 % 0.0 in 0.0 W/m2 CLR
07:27 5.0 °F 0.4 °F 1026.6 in Calm     72 % 0.0 in 0.0 W/m2 CLR
07:32 5.0 °F 0.6 °F 1026.6 in Calm     73 % 0.0 in 0.0 W/m2 CLR
07:37 5.0 °F 0.6 °F 1026.6 in Calm     73 % 0.0 in 0.0 W/m2 CLR
07:42 4.4 °F -0.2 °F 1026.6 in Calm     72 % 0.0 in 0.0 W/m2 CLR
07:47 5.0 °F 0.2 °F 1026.6 in Calm     71 % 0.0 in 0.0 W/m2 CLR
07:52 5.0 °F 0.2 °F 1026.6 in Calm     71 % 0.0 in 0.0 W/m2 CLR
07:57 4.4 °F -0.2 °F 1026.6 in Calm     72 % 0.0 in 0.0 W/m2 CLR
08:02 4.4 °F -0.2 °F 1026.6 in Calm     72 % 0.0 in 0.0 W/m2 CLR
08:07 3.9 °F -0.5 °F 1026.6 in Calm     73 % 0.0 in 0.0 W/m2 CLR
08:12 3.9 °F -0.5 °F 1026.6 in Calm     73 % 0.0 in 0.0 W/m2 OVC
08:17 3.9 °F -0.3 °F 1026.6 in Calm     74 % 0.0 in 0.0 W/m2 OVC
08:27 3.9 °F -0.2 °F 1027.0 in Calm     75 % 0.0 in 7.0 W/m2 BKN
08:32 3.3 °F -0.9 °F 1027.0 in Calm     74 % 0.0 in 9.0 W/m2 BKN
08:37 3.3 °F -0.7 °F 1027.0 in Calm     75 % 0.0 in 11.0 W/m2 BKN
08:42 3.3 °F -0.9 °F 1027.0 in Calm     74 % 0.0 in 12.0 W/m2 BKN
08:47 3.9 °F -0.5 °F 1027.0 in Calm     73 % 0.0 in 16.0 W/m2 BKN
08:52 3.9 °F -0.5 °F 1027.0 in Calm     73 % 0.0 in 21.0 W/m2 BKN
08:57 3.9 °F -0.5 °F 1027.0 in Calm     73 % 0.0 in 32.0 W/m2 BKN
09:02 4.4 °F 0.0 °F 1027.0 in Calm     73 % 0.0 in 42.0 W/m2 BKN
09:07 5.0 °F 0.6 °F 1027.3 in Calm     73 % 0.0 in 51.0 W/m2 SCT
09:12 5.0 °F 0.2 °F 1027.3 in Calm     71 % 0.0 in 70.0 W/m2 FEW
09:17 5.0 °F 0.2 °F 1027.3 in Calm     71 % 0.0 in 83.0 W/m2 FEW
09:22 5.6 °F 0.5 °F 1027.3 in Calm     70 % 0.0 in 97.0 W/m2 CLR
09:28 5.6 °F 0.5 °F 1027.3 in Calm     70 % 0.0 in 116.0 W/m2 CLR
09:33 6.1 °F 0.8 °F 1027.3 in Calm     69 % 0.0 in 109.0 W/m2 CLR
09:38 6.1 °F 0.4 °F 1027.3 in Calm     67 % 0.0 in 149.0 W/m2 CLR
09:43 6.7 °F 0.6 °F 1027.3 in Calm     65 % 0.0 in 167.0 W/m2 CLR
09:48 6.7 °F 0.3 °F 1027.7 in Calm     64 % 0.0 in 104.0 W/m2 CLR
09:53 7.8 °F 1.2 °F 1027.7 in Calm     63 % 0.0 in 202.0 W/m2 CLR
09:58 7.8 °F 1.2 °F 1027.7 in Calm     63 % 0.0 in 220.0 W/m2 CLR
10:03 7.8 °F 0.5 °F 1027.7 in Calm     60 % 0.0 in 236.0 W/m2 CLR
10:08 8.3 °F 0.8 °F 1027.7 in Calm     59 % 0.0 in 250.0 W/m2 CLR
10:13 8.9 °F 1.3 °F 1027.7 in Calm     59 % 0.0 in 269.0 W/m2 CLR
10:18 8.9 °F 0.8 °F 1027.3 in Calm     57 % 0.0 in 279.0 W/m2 CLR
10:23 9.4 °F 1.1 °F 1027.7 in Calm     56 % 0.0 in 288.0 W/m2 CLR
10:28 10.0 °F 1.4 °F 1027.7 in Calm     55 % 0.0 in 304.0 W/m2 CLR
10:33 10.6 °F 1.6 °F 1027.7 in Calm     54 % 0.0 in 316.0 W/m2 CLR
10:38 11.1 °F 2.2 °F 1027.7 in Calm     54 % 0.0 in 332.0 W/m2 CLR
10:43 11.7 °F 2.4 °F 1027.3 in Calm     53 % 0.0 in 343.0 W/m2 CLR
10:48 12.2 °F 2.7 °F 1027.3 in Calm     52 % 0.0 in 357.0 W/m2 CLR
10:53 12.8 °F 2.9 °F 1027.3 in Calm     51 % 0.0 in 371.0 W/m2 CLR
10:58 13.3 °F 3.4 °F 1027.3 in Calm     51 % 0.0 in 385.0 W/m2 CLR
11:03 13.9 °F 3.6 °F 1027.3 in Calm     50 % 0.0 in 394.0 W/m2 CLR
11:08 14.4 °F 3.8 °F 1027.3 in Calm     49 % 0.0 in 408.0 W/m2 CLR
11:13 15.0 °F 4.1 °F 1027.3 in Calm     48 % 0.0 in 418.0 W/m2 CLR
11:18 15.6 °F 4.3 °F 1027.3 in Calm     47 % 0.0 in 429.0 W/m2 CLR
11:23 15.6 °F 3.9 °F 1027.3 in Calm     46 % 0.0 in 439.0 W/m2 CLR
11:28 16.1 °F 3.8 °F 1027.3 in Calm     44 % 0.0 in 452.0 W/m2 CLR
11:33 16.1 °F 3.5 °F 1027.3 in Calm     43 % 0.0 in 462.0 W/m2 CLR
11:38 16.7 °F 3.7 °F 1027.3 in Calm   1.6 mph 42 % 0.0 in 471.0 W/m2 CLR
11:43 17.2 °F 4.2 °F 1027.0 in NNW 5.6 mph 5.6 mph 42 % 0.0 in 480.0 W/m2 CLR
11:48 17.8 °F 4.3 °F 1027.0 in NNW 5.6 mph 5.6 mph 41 % 0.0 in 478.0 W/m2 CLR
11:53 18.9 °F 5.7 °F 1027.0 in North 5.6 mph 5.6 mph 42 % 0.0 in 490.0 W/m2 CLR
11:58 19.4 °F 5.8 °F 1027.0 in NNW 5.6 mph 5.6 mph 41 % 0.0 in 506.0 W/m2 CLR
12:03 19.4 °F 5.8 °F 1027.0 in North 5.6 mph 5.6 mph 41 % 0.0 in 512.0 W/m2 CLR
12:08 20.0 °F 6.0 °F 1027.0 in NW 9.3 mph 9.3 mph 40 % 0.0 in 522.0 W/m2 CLR
12:13 20.0 °F 6.0 °F 1027.0 in NNW 14.5 mph 14.5 mph 40 % 0.0 in 531.0 W/m2 CLR
12:18 20.0 °F 6.0 °F 1027.0 in NNW 7.4 mph 7.4 mph 40 % 0.0 in 536.0 W/m2 CLR
12:23 20.6 °F 6.1 °F 1027.0 in NNW 6.4 mph 6.6 mph 39 % 0.0 in 543.0 W/m2 CLR
12:29 20.6 °F 6.1 °F 1027.0 in North 9.3 mph 9.3 mph 39 % 0.0 in 548.0 W/m2 CLR
12:34 20.6 °F 6.1 °F 1027.0 in NW 13.0 mph 13.0 mph 39 % 0.0 in 554.0 W/m2 CLR
12:39 21.1 °F 6.2 °F 1027.0 in NNW 14.8 mph 14.8 mph 38 % 0.0 in 561.0 W/m2 CLR
12:44 21.1 °F 6.2 °F 1027.0 in NNW 14.8 mph 14.8 mph 38 % 0.0 in 566.0 W/m2 CLR
12:49 21.7 °F 6.3 °F 1027.0 in NW 16.7 mph 16.7 mph 37 % 0.0 in 570.0 W/m2 CLR
12:54 21.7 °F 6.3 °F 1027.0 in NNW 14.5 mph 14.5 mph 37 % 0.0 in 575.0 W/m2 CLR
12:59 21.7 °F 6.3 °F 1027.0 in NNW 13.0 mph 13.0 mph 37 % 0.0 in 578.0 W/m2 CLR
13:04 21.7 °F 5.9 °F 1027.0 in NW 18.5 mph 18.5 mph 36 % 0.0 in 582.0 W/m2 CLR
13:09 21.7 °F 5.9 °F 1027.0 in NW 13.0 mph 13.0 mph 36 % 0.0 in 584.0 W/m2 CLR
13:14 21.7 °F 5.9 °F 1027.0 in NW 7.4 mph 7.4 mph 36 % 0.0 in 587.0 W/m2 CLR
13:19 22.2 °F 6.0 °F 1026.6 in NW 13.0 mph 13.0 mph 35 % 0.0 in 591.0 W/m2 CLR
13:24 22.2 °F 6.0 °F 1026.6 in NNW 14.8 mph 14.8 mph 35 % 0.0 in 592.0 W/m2 CLR
13:29 22.2 °F 6.0 °F 1026.6 in North 5.6 mph 5.6 mph 35 % 0.0 in 594.0 W/m2 CLR
13:34 22.2 °F 5.6 °F 1026.6 in NW 7.4 mph 7.4 mph 34 % 0.0 in 596.0 W/m2 CLR
13:39 22.2 °F 5.6 °F 1026.6 in NNW 9.3 mph 9.3 mph 34 % 0.0 in 596.0 W/m2 CLR
13:44 22.8 °F 6.1 °F 1026.3 in North 9.7 mph 9.7 mph 34 % 0.0 in 596.0 W/m2 CLR
13:49 22.8 °F 6.1 °F 1026.3 in NW 7.4 mph 7.4 mph 34 % 0.0 in 596.0 W/m2 CLR
13:54 23.3 °F 6.2 °F 1026.3 in NW 7.4 mph 7.4 mph 33 % 0.0 in 594.0 W/m2 CLR
13:59 23.3 °F 6.2 °F 1026.3 in NNW 8.0 mph 8.0 mph 33 % 0.0 in 594.0 W/m2 CLR
14:04 23.3 °F 6.2 °F 1026.3 in NW 14.8 mph 14.8 mph 33 % 0.0 in 594.0 W/m2 CLR
14:09 23.3 °F 6.2 °F 1026.3 in NW 9.3 mph 9.3 mph 33 % 0.0 in 591.0 W/m2 CLR
14:14 23.3 °F 6.2 °F 1026.0 in NNW 9.3 mph 9.3 mph 33 % 0.0 in 589.0 W/m2 CLR
14:19 23.9 °F 6.6 °F 1026.0 in NW 14.5 mph 14.5 mph 33 % 0.0 in 587.0 W/m2 CLR
14:24 23.9 °F 6.6 °F 1026.0 in NW 9.7 mph 9.7 mph 33 % 0.0 in 585.0 W/m2 CLR
14:29 23.9 °F 6.2 °F 1026.0 in WNW 7.4 mph 7.4 mph 32 % 0.0 in 582.0 W/m2 CLR
14:34 24.4 °F 7.1 °F 1025.6 in NW 16.7 mph 16.7 mph 33 % 0.0 in 578.0 W/m2 CLR
14:39 24.4 °F 6.7 °F 1025.6 in NNW 13.0 mph 13.0 mph 32 % 0.0 in 577.0 W/m2 CLR
14:44 24.4 °F 6.7 °F 1025.6 in NW 14.8 mph 14.8 mph 32 % 0.0 in 570.0 W/m2 CLR
14:49 24.4 °F 6.7 °F 1025.6 in NNW 14.8 mph 14.8 mph 32 % 0.0 in 566.0 W/m2 CLR
14:54 24.4 °F 6.2 °F 1025.3 in NNW 14.5 mph 14.5 mph 31 % 0.0 in 561.0 W/m2 CLR
14:59 24.4 °F 6.2 °F 1025.3 in NW 14.8 mph 14.8 mph 31 % 0.0 in 557.0 W/m2 CLR
15:04 24.4 °F 6.2 °F 1025.3 in NW 16.7 mph 16.7 mph 31 % 0.0 in 548.0 W/m2 CLR
15:09 25.0 °F 6.7 °F 1025.3 in North 18.5 mph 18.5 mph 31 % 0.0 in 543.0 W/m2 CLR
15:14 25.0 °F 6.7 °F 1025.3 in WNW 13.0 mph 13.0 mph 31 % 0.0 in 536.0 W/m2 CLR
15:19 25.0 °F 6.7 °F 1025.3 in NNW 18.5 mph 18.5 mph 31 % 0.0 in 531.0 W/m2 CLR
15:24 25.6 °F 7.2 °F 1025.3 in NW 14.8 mph 14.8 mph 31 % 0.0 in 513.0 W/m2 CLR
15:29 25.0 °F 6.7 °F 1025.3 in NW 16.7 mph 16.7 mph 31 % 0.0 in 501.0 W/m2 CLR
15:34 25.0 °F 6.7 °F 1025.3 in NW 14.8 mph 14.8 mph 31 % 0.0 in 490.0 W/m2 CLR
15:39 25.6 °F 7.2 °F 1024.9 in NW 13.0 mph 13.0 mph 31 % 0.0 in 489.0 W/m2 CLR
15:44 25.6 °F 7.2 °F 1024.9 in NW 22.2 mph 22.2 mph 31 % 0.0 in 482.0 W/m2 CLR
15:49 25.6 °F 7.2 °F 1024.9 in NNW 18.5 mph 18.5 mph 31 % 0.0 in 475.0 W/m2 CLR
15:54 25.6 °F 7.2 °F 1024.9 in NNW 18.5 mph 18.5 mph 31 % 0.0 in 466.0 W/m2 CLR
15:59 25.6 °F 7.2 °F 1024.9 in NW 14.8 mph 14.8 mph 31 % 0.0 in 443.0 W/m2 CLR
16:04 25.6 °F 7.6 °F 1024.9 in NW 14.8 mph 14.8 mph 32 % 0.0 in 450.0 W/m2 CLR
16:09 25.6 °F 7.6 °F 1024.9 in NNW 19.3 mph 19.3 mph 32 % 0.0 in 438.0 W/m2 CLR
16:14 25.6 °F 8.1 °F 1024.9 in WNW 14.8 mph 14.8 mph 33 % 0.0 in 427.0 W/m2 CLR
16:19 25.6 °F 8.1 °F 1024.9 in NW 18.5 mph 18.5 mph 33 % 0.0 in 415.0 W/m2 CLR
16:24 25.6 °F 7.6 °F 1024.9 in NW 17.7 mph 17.7 mph 32 % 0.0 in 404.0 W/m2 CLR
16:29 26.1 °F 8.1 °F 1024.9 in NW 14.8 mph 14.8 mph 32 % 0.0 in 387.0 W/m2 CLR
16:30 26.1 °F 8.1 °F 1024.9 in NNW 14.8 mph 14.8 mph 32 % 0.0 in 387.0 W/m2 CLR
16:34 25.6 °F 7.6 °F 1024.9 in NW 16.7 mph 16.7 mph 32 % 0.0 in 367.0 W/m2 CLR
16:39 25.6 °F 7.6 °F 1024.9 in NW 16.7 mph 16.7 mph 32 % 0.0 in 353.0 W/m2 CLR
16:44 25.6 °F 7.6 °F 1024.9 in North 14.8 mph 14.8 mph 32 % 0.0 in 302.0 W/m2 CLR
16:50 25.6 °F 7.6 °F 1024.9 in North 13.0 mph 13.0 mph 32 % 0.0 in 313.0 W/m2 CLR
16:55 25.0 °F 7.2 °F 1024.9 in NW 16.7 mph 16.7 mph 32 % 0.0 in 315.0 W/m2 CLR
17:00 25.6 °F 8.1 °F 1024.9 in NNW 14.8 mph 14.8 mph 33 % 0.0 in 297.0 W/m2 CLR
17:05 25.6 °F 8.6 °F 1024.9 in NW 9.3 mph 9.3 mph 34 % 0.0 in 290.0 W/m2 CLR
17:10 25.6 °F 8.6 °F 1024.9 in NNW 20.4 mph 20.4 mph 34 % 0.0 in 278.0 W/m2 CLR
17:15 25.6 °F 8.6 °F 1024.9 in NW 13.0 mph 13.0 mph 34 % 0.0 in 269.0 W/m2 CLR
17:20 25.0 °F 8.1 °F 1024.9 in North 7.4 mph   34 % 0.0 in 255.0 W/m2 CLR
17:25 25.0 °F 8.1 °F 1025.3 in NNW 14.8 mph 14.8 mph 34 % 0.0 in 239.0 W/m2 CLR
17:30 25.0 °F 8.1 °F 1025.3 in NNW 5.6 mph 5.6 mph 34 % 0.0 in 220.0 W/m2 CLR
17:35 25.0 °F 8.1 °F 1025.3 in NNE 5.6 mph 5.6 mph 34 % 0.0 in 202.0 W/m2 CLR
17:40 24.4 °F 7.6 °F 1025.3 in NNE 9.3 mph 9.3 mph 34 % 0.0 in 188.0 W/m2 CLR
17:45 24.4 °F 8.0 °F 1025.3 in NNE 5.6 mph 5.6 mph 35 % 0.0 in 176.0 W/m2 CLR
17:50 24.4 °F 8.4 °F 1025.3 in NE 11.1 mph 11.1 mph 36 % 0.0 in 160.0 W/m2 CLR
17:55 23.9 °F 7.9 °F 1025.3 in NE 11.3 mph 11.3 mph 36 % 0.0 in 142.0 W/m2 CLR
18:00 23.3 °F 7.8 °F 1025.3 in NNE 9.3 mph 9.3 mph 37 % 0.0 in 121.0 W/m2 CLR
18:05 23.3 °F 8.2 °F 1025.3 in North 5.6 mph 5.6 mph 38 % 0.0 in 105.0 W/m2 CLR
18:10 23.3 °F 9.7 °F 1025.3 in NE 8.0 mph 8.0 mph 42 % 0.0 in 86.0 W/m2 CLR
18:15 23.3 °F 10.1 °F 1025.3 in NNE 5.6 mph 5.6 mph 43 % 0.0 in 65.0 W/m2 SCT
18:20 22.2 °F 9.7 °F 1025.3 in NE 11.1 mph 11.1 mph 45 % 0.0 in 54.0 W/m2 SCT
18:25 22.2 °F 10.1 °F 1025.3 in NE 3.7 mph 3.7 mph 46 % 0.0 in 47.0 W/m2 SCT
18:30 21.7 °F 9.8 °F 1025.3 in Calm     47 % 0.0 in 39.0 W/m2 BKN
18:35 20.6 °F 9.2 °F 1025.3 in Calm     48 % 0.0 in 28.0 W/m2 BKN
18:40 20.0 °F 8.9 °F 1025.3 in Calm     49 % 0.0 in 21.0 W/m2 BKN
18:45 18.9 °F 7.9 °F 1025.6 in Calm     49 % 0.0 in 16.0 W/m2 BKN
18:50 18.3 °F 7.7 °F 1025.3 in Calm     50 % 0.0 in 12.0 W/m2 BKN
18:55 17.8 °F 7.2 °F 1025.6 in Calm     50 % 0.0 in 11.0 W/m2 BKN
19:00 17.2 °F 7.0 °F 1025.6 in Calm     51 % 0.0 in 7.0 W/m2 BKN
19:05 16.7 °F 6.8 °F 1025.6 in Calm     52 % 0.0 in 0.0 W/m2 OVC
19:10 16.1 °F 6.5 °F 1025.6 in Calm     53 % 0.0 in 0.0 W/m2 OVC
19:15 16.1 °F 6.5 °F 1025.6 in Calm     53 % 0.0 in 0.0 W/m2 CLR
19:20 15.6 °F 6.0 °F 1025.6 in Calm     53 % 0.0 in 0.0 W/m2 CLR
19:25 15.6 °F 6.3 °F 1026.0 in Calm     54 % 0.0 in 0.0 W/m2 CLR
19:30 15.0 °F 6.3 °F 1026.0 in Calm     56 % 0.0 in 0.0 W/m2 CLR
19:35 15.0 °F 6.3 °F 1026.0 in Calm     56 % 0.0 in 0.0 W/m2 CLR
19:40 15.0 °F 6.3 °F 1026.0 in Calm     56 % 0.0 in 0.0 W/m2 CLR
19:45 15.6 °F 6.8 °F 1026.0 in Calm     56 % 0.0 in 0.0 W/m2 CLR
19:50 16.1 °F 7.6 °F 1026.0 in Calm     57 % 0.0 in 0.0 W/m2 CLR
19:55 16.1 °F 7.8 °F 1026.0 in Calm     58 % 0.0 in 0.0 W/m2 CLR
20:00 16.1 °F 8.1 °F 1026.0 in Calm     59 % 0.0 in 0.0 W/m2 CLR
20:05 16.1 °F 8.3 °F 1026.0 in Calm     60 % 0.0 in 0.0 W/m2 CLR
20:10 16.1 °F 8.3 °F 1026.0 in Calm     60 % 0.0 in 0.0 W/m2 CLR
20:15 16.1 °F 8.3 °F 1026.3 in Calm     60 % 0.0 in 0.0 W/m2 CLR
20:20 15.6 °F 7.8 °F 1026.3 in Calm     60 % 0.0 in 0.0 W/m2 CLR
20:25 15.0 °F 7.6 °F 1026.3 in Calm     61 % 0.0 in 0.0 W/m2 CLR
20:30 14.4 °F 7.2 °F 1026.3 in Calm     62 % 0.0 in 0.0 W/m2 CLR
20:35 14.4 °F 7.2 °F 1026.3 in Calm     62 % 0.0 in 0.0 W/m2 CLR
20:40 13.9 °F 6.7 °F 1026.3 in Calm     62 % 0.0 in 0.0 W/m2 CLR
20:45 13.9 °F 6.7 °F 1026.6 in Calm     62 % 0.0 in 0.0 W/m2 CLR
20:50 13.3 °F 6.4 °F 1026.6 in Calm     63 % 0.0 in 0.0 W/m2 CLR
20:55 13.3 °F 6.4 °F 1026.6 in Calm     63 % 0.0 in 0.0 W/m2 CLR
21:00 12.8 °F 5.9 °F 1026.6 in Calm     63 % 0.0 in 0.0 W/m2 CLR
21:05 12.2 °F 5.6 °F 1026.6 in Calm     64 % 0.0 in 0.0 W/m2 CLR
21:10 12.2 °F 5.6 °F 1026.6 in Calm     64 % 0.0 in 0.0 W/m2 CLR
21:15 11.7 °F 5.1 °F 1026.6 in Calm     64 % 0.0 in 0.0 W/m2 CLR
21:20 11.1 °F 4.8 °F 1026.6 in Calm     65 % 0.0 in 0.0 W/m2 CLR
21:25 11.1 °F 4.8 °F 1027.0 in Calm     65 % 0.0 in 0.0 W/m2 CLR
21:30 11.1 °F 5.0 °F 1027.0 in Calm     66 % 0.0 in 0.0 W/m2 CLR
21:35 10.6 °F 4.4 °F 1027.0 in Calm     66 % 0.0 in 0.0 W/m2 CLR
21:40 10.6 °F 4.9 °F 1027.0 in Calm     68 % 0.0 in 0.0 W/m2 CLR
21:45 10.6 °F 4.9 °F 1027.0 in Calm     68 % 0.0 in 0.0 W/m2 CLR
21:50 10.6 °F 4.9 °F 1027.0 in Calm     68 % 0.0 in 0.0 W/m2 CLR
21:55 10.6 °F 4.9 °F 1027.0 in Calm     68 % 0.0 in 0.0 W/m2 CLR
22:00 10.6 °F 4.9 °F 1027.0 in Calm     68 % 0.0 in 0.0 W/m2 CLR
22:05 10.6 °F 5.1 °F 1027.3 in Calm     69 % 0.0 in 0.0 W/m2 CLR
22:10 11.1 °F 5.8 °F 1027.0 in Calm     70 % 0.0 in 0.0 W/m2 CLR
22:15 11.1 °F 5.8 °F 1027.3 in Calm     70 % 0.0 in 0.0 W/m2 CLR
22:20 10.6 °F 5.3 °F 1027.3 in Calm     70 % 0.0 in 0.0 W/m2 CLR
22:25 10.6 °F 5.3 °F 1027.3 in Calm     70 % 0.0 in 0.0 W/m2 CLR
22:30 10.6 °F 5.3 °F 1027.3 in Calm     70 % 0.0 in 0.0 W/m2 CLR
22:35 10.6 °F 5.3 °F 1027.3 in Calm     70 % 0.0 in 0.0 W/m2 CLR
22:40 10.0 °F 5.2 °F 1027.7 in Calm     72 % 0.0 in 0.0 W/m2 CLR
23:06 10.0 °F 5.2 °F 1027.7 in Calm     72 % 0.0 in 0.0 W/m2 CLR
23:11 10.0 °F 5.0 °F 1027.7 in Calm     71 % 0.0 in 0.0 W/m2 CLR
23:16 9.4 °F 4.7 °F 1027.7 in Calm     72 % 0.0 in 0.0 W/m2 CLR
23:21 9.4 °F 4.7 °F 1027.7 in Calm     72 % 0.0 in 0.0 W/m2 CLR
23:26 8.9 °F 4.1 °F 1027.7 in Calm     72 % 0.0 in 0.0 W/m2 CLR
23:31 8.9 °F 4.1 °F 1028.0 in Calm     72 % 0.0 in 0.0 W/m2 CLR
23:36 8.9 °F 4.1 °F 1028.0 in Calm     72 % 0.0 in 0.0 W/m2 CLR
23:41 8.9 °F 4.1 °F 1028.0 in Calm     72 % 0.0 in 0.0 W/m2 CLR
23:46 8.9 °F 4.3 °F 1028.0 in Calm     73 % 0.0 in 0.0 W/m2 CLR
23:51 8.9 °F 4.5 °F 1028.0 in Calm     74 % 0.0 in 0.0 W/m2 CLR
23:56 8.9 °F 4.5 °F 1028.0 in Calm     74 % 0.0 in 0.0 W/m2 CLR
Lo Temps de Massalio
Compliments of Weather Underground - 1.25 mb